sensor_id;sensor_type;location;lat;lon;timestamp;pressure;altitude;pressure_sealevel;temperature;humidity
33454;BME280;39400;49.744;7.012;2023-05-29T00:00:20;96148.81;;;13.84;75.02
33454;BME280;39400;49.744;7.012;2023-05-29T00:02:45;96158.97;;;13.94;74.91
33454;BME280;39400;49.744;7.012;2023-05-29T00:05:11;96151.50;;;13.91;74.78
33454;BME280;39400;49.744;7.012;2023-05-29T00:07:37;96155.09;;;13.88;75.09
33454;BME280;39400;49.744;7.012;2023-05-29T00:10:04;96156.75;;;13.78;75.01
33454;BME280;39400;49.744;7.012;2023-05-29T00:12:30;96147.81;;;13.63;75.61
33454;BME280;39400;49.744;7.012;2023-05-29T00:14:55;96154.56;;;13.62;75.78
33454;BME280;39400;49.744;7.012;2023-05-29T00:17:20;96150.19;;;13.61;75.64
33454;BME280;39400;49.744;7.012;2023-05-29T00:19:46;96145.13;;;13.56;75.86
33454;BME280;39400;49.744;7.012;2023-05-29T00:22:11;96147.50;;;13.54;75.91
33454;BME280;39400;49.744;7.012;2023-05-29T00:24:36;96140.34;;;13.60;75.07
33454;BME280;39400;49.744;7.012;2023-05-29T00:27:02;96138.72;;;13.66;74.97
33454;BME280;39400;49.744;7.012;2023-05-29T00:29:28;96142.47;;;13.87;73.94
33454;BME280;39400;49.744;7.012;2023-05-29T00:31:54;96132.81;;;13.64;74.86
33454;BME280;39400;49.744;7.012;2023-05-29T00:34:22;96144.84;;;13.40;76.27
33454;BME280;39400;49.744;7.012;2023-05-29T00:36:47;96139.03;;;13.30;76.66
33454;BME280;39400;49.744;7.012;2023-05-29T00:39:13;96154.78;;;13.34;75.94
33454;BME280;39400;49.744;7.012;2023-05-29T00:41:38;96144.19;;;13.25;76.66
33454;BME280;39400;49.744;7.012;2023-05-29T00:44:04;96136.34;;;13.16;76.78
33454;BME280;39400;49.744;7.012;2023-05-29T00:46:30;96133.59;;;13.16;76.95
33454;BME280;39400;49.744;7.012;2023-05-29T00:48:56;96135.56;;;13.16;76.67
33454;BME280;39400;49.744;7.012;2023-05-29T00:51:22;96140.69;;;13.17;76.84
33454;BME280;39400;49.744;7.012;2023-05-29T00:53:48;96143.81;;;13.19;76.43
33454;BME280;39400;49.744;7.012;2023-05-29T00:56:13;96139.84;;;13.27;76.33
33454;BME280;39400;49.744;7.012;2023-05-29T00:58:39;96137.09;;;13.27;76.04
33454;BME280;39400;49.744;7.012;2023-05-29T01:01:05;96137.50;;;13.19;76.41
33454;BME280;39400;49.744;7.012;2023-05-29T01:03:31;96141.88;;;13.13;76.77
33454;BME280;39400;49.744;7.012;2023-05-29T01:05:57;96136.44;;;13.02;77.13
33454;BME280;39400;49.744;7.012;2023-05-29T01:08:22;96134.47;;;12.99;77.18
33454;BME280;39400;49.744;7.012;2023-05-29T01:10:51;96135.25;;;13.06;76.94
33454;BME280;39400;49.744;7.012;2023-05-29T01:13:28;96140.78;;;13.03;77.49
33454;BME280;39400;49.744;7.012;2023-05-29T01:16:04;96147.13;;;13.00;77.37
33454;BME280;39400;49.744;7.012;2023-05-29T01:18:51;96143.69;;;12.74;78.80
33454;BME280;39400;49.744;7.012;2023-05-29T01:24:01;96125.19;;;12.78;78.27
33454;BME280;39400;49.744;7.012;2023-05-29T01:29:22;96135.47;;;12.67;79.10
33454;BME280;39400;49.744;7.012;2023-05-29T01:31:52;96141.03;;;12.60;79.01
33454;BME280;39400;49.744;7.012;2023-05-29T01:34:17;96134.75;;;12.56;79.12
33454;BME280;39400;49.744;7.012;2023-05-29T01:36:43;96137.13;;;12.54;79.08
33454;BME280;39400;49.744;7.012;2023-05-29T01:39:09;96131.63;;;12.54;79.57
33454;BME280;39400;49.744;7.012;2023-05-29T01:41:35;96129.69;;;12.47;79.50
33454;BME280;39400;49.744;7.012;2023-05-29T01:44:03;96131.66;;;12.43;79.83
33454;BME280;39400;49.744;7.012;2023-05-29T01:46:29;96134.81;;;12.42;80.01
33454;BME280;39400;49.744;7.012;2023-05-29T01:48:55;96128.06;;;12.50;79.37
33454;BME280;39400;49.744;7.012;2023-05-29T01:51:22;96136.38;;;12.43;79.88
33454;BME280;39400;49.744;7.012;2023-05-29T01:53:47;96133.25;;;12.41;79.81
33454;BME280;39400;49.744;7.012;2023-05-29T01:56:12;96141.13;;;12.38;80.10
33454;BME280;39400;49.744;7.012;2023-05-29T01:58:39;96134.06;;;12.37;80.37
33454;BME280;39400;49.744;7.012;2023-05-29T02:01:06;96138.78;;;12.41;80.13
33454;BME280;39400;49.744;7.012;2023-05-29T02:03:32;96130.91;;;12.35;80.37
33454;BME280;39400;49.744;7.012;2023-05-29T02:05:58;96138.00;;;12.36;79.93
33454;BME280;39400;49.744;7.012;2023-05-29T02:08:24;96130.22;;;12.10;81.08
33454;BME280;39400;49.744;7.012;2023-05-29T02:10:50;96128.69;;;11.80;82.53
33454;BME280;39400;49.744;7.012;2023-05-29T02:13:16;96124.00;;;11.63;83.62
33454;BME280;39400;49.744;7.012;2023-05-29T02:15:42;96124.44;;;11.43;84.66
33454;BME280;39400;49.744;7.012;2023-05-29T02:18:13;96125.59;;;11.50;83.83
33454;BME280;39400;49.744;7.012;2023-05-29T02:20:40;96124.81;;;11.38;84.72
33454;BME280;39400;49.744;7.012;2023-05-29T02:23:08;96123.25;;;11.37;84.60
33454;BME280;39400;49.744;7.012;2023-05-29T02:25:33;96124.44;;;11.36;85.21
33454;BME280;39400;49.744;7.012;2023-05-29T02:27:59;96123.63;;;11.32;85.43
33454;BME280;39400;49.744;7.012;2023-05-29T02:30:24;96126.41;;;11.25;85.53
33454;BME280;39400;49.744;7.012;2023-05-29T02:32:50;96135.84;;;11.24;86.14
33454;BME280;39400;49.744;7.012;2023-05-29T02:35:15;96131.13;;;11.10;86.59
33454;BME280;39400;49.744;7.012;2023-05-29T02:37:41;96129.94;;;10.93;88.33
33454;BME280;39400;49.744;7.012;2023-05-29T02:40:07;96128.78;;;10.98;87.57
33454;BME280;39400;49.744;7.012;2023-05-29T02:42:32;96122.47;;;10.98;88.07
33454;BME280;39400;49.744;7.012;2023-05-29T02:44:57;96118.53;;;10.91;88.50
33454;BME280;39400;49.744;7.012;2023-05-29T02:47:23;96121.28;;;10.91;87.62
33454;BME280;39400;49.744;7.012;2023-05-29T02:49:48;96117.72;;;10.87;88.25
33454;BME280;39400;49.744;7.012;2023-05-29T02:52:14;96131.09;;;10.85;88.76
33454;BME280;39400;49.744;7.012;2023-05-29T02:54:39;96130.69;;;10.80;89.92
33454;BME280;39400;49.744;7.012;2023-05-29T02:57:04;96125.59;;;10.67;90.56
33454;BME280;39400;49.744;7.012;2023-05-29T02:59:30;96130.31;;;10.70;90.29
33454;BME280;39400;49.744;7.012;2023-05-29T03:01:55;96127.13;;;10.61;91.31
33454;BME280;39400;49.744;7.012;2023-05-29T03:04:20;96131.06;;;10.57;91.45
33454;BME280;39400;49.744;7.012;2023-05-29T03:06:46;96130.25;;;10.56;90.73
33454;BME280;39400;49.744;7.012;2023-05-29T03:09:11;96123.97;;;10.59;90.52
33454;BME280;39400;49.744;7.012;2023-05-29T03:11:37;96129.91;;;10.68;90.20
33454;BME280;39400;49.744;7.012;2023-05-29T03:14:02;96127.16;;;10.68;90.50
33454;BME280;39400;49.744;7.012;2023-05-29T03:16:27;96121.66;;;10.79;90.42
33454;BME280;39400;49.744;7.012;2023-05-29T03:18:53;96135.41;;;10.79;91.16
33454;BME280;39400;49.744;7.012;2023-05-29T03:21:19;96127.94;;;10.80;90.60
33454;BME280;39400;49.744;7.012;2023-05-29T03:23:45;96138.16;;;10.86;90.83
33454;BME280;39400;49.744;7.012;2023-05-29T03:26:12;96138.19;;;10.90;91.12
33454;BME280;39400;49.744;7.012;2023-05-29T03:28:39;96131.53;;;10.94;91.25
33454;BME280;39400;49.744;7.012;2023-05-29T03:31:07;96143.69;;;10.93;91.66
33454;BME280;39400;49.744;7.012;2023-05-29T03:33:32;96133.47;;;10.98;91.51
33454;BME280;39400;49.744;7.012;2023-05-29T03:36:12;96145.28;;;10.94;91.84
33454;BME280;39400;49.744;7.012;2023-05-29T03:38:37;96141.72;;;10.98;91.31
33454;BME280;39400;49.744;7.012;2023-05-29T03:41:02;96146.06;;;10.91;91.94
33454;BME280;39400;49.744;7.012;2023-05-29T03:43:28;96146.06;;;10.99;91.33
33454;BME280;39400;49.744;7.012;2023-05-29T03:45:53;96151.56;;;10.95;91.80
33454;BME280;39400;49.744;7.012;2023-05-29T03:48:19;96151.56;;;11.06;91.63
33454;BME280;39400;49.744;7.012;2023-05-29T03:50:47;96150.38;;;11.07;91.61
33454;BME280;39400;49.744;7.012;2023-05-29T03:53:14;96150.78;;;11.16;91.14
33454;BME280;39400;49.744;7.012;2023-05-29T03:55:40;96148.03;;;11.23;90.94
33454;BME280;39400;49.744;7.012;2023-05-29T03:58:07;96151.56;;;11.20;91.02
33454;BME280;39400;49.744;7.012;2023-05-29T04:00:33;96155.50;;;11.19;91.45
33454;BME280;39400;49.744;7.012;2023-05-29T04:03:01;96161.03;;;11.19;91.44
33454;BME280;39400;49.744;7.012;2023-05-29T04:05:27;96173.19;;;11.25;91.12
33454;BME280;39400;49.744;7.012;2023-05-29T04:07:52;96176.34;;;11.27;91.80
33454;BME280;39400;49.744;7.012;2023-05-29T04:10:17;96180.66;;;11.39;91.69
33454;BME280;39400;49.744;7.012;2023-05-29T04:12:43;96184.59;;;11.41;91.73
33454;BME280;39400;49.744;7.012;2023-05-29T04:15:08;96183.03;;;11.51;91.38
33454;BME280;39400;49.744;7.012;2023-05-29T04:17:34;96192.50;;;11.61;90.89
33454;BME280;39400;49.744;7.012;2023-05-29T04:19:59;96201.94;;;11.74;90.74
33454;BME280;39400;49.744;7.012;2023-05-29T04:22:25;96197.56;;;11.73;90.60
33454;BME280;39400;49.744;7.012;2023-05-29T04:24:50;96202.72;;;11.71;90.72
33454;BME280;39400;49.744;7.012;2023-05-29T04:27:16;96208.22;;;11.68;91.54
33454;BME280;39400;49.744;7.012;2023-05-29T04:29:42;96209.78;;;11.72;91.04
33454;BME280;39400;49.744;7.012;2023-05-29T04:32:08;96210.56;;;11.83;90.75
33454;BME280;39400;49.744;7.012;2023-05-29T04:34:34;96212.16;;;11.92;90.54
33454;BME280;39400;49.744;7.012;2023-05-29T04:37:00;96221.97;;;12.07;90.04
33454;BME280;39400;49.744;7.012;2023-05-29T04:39:26;96226.31;;;12.04;90.62
33454;BME280;39400;49.744;7.012;2023-05-29T04:41:51;96227.84;;;12.30;89.55
33454;BME280;39400;49.744;7.012;2023-05-29T04:44:20;96219.94;;;12.25;89.55
33454;BME280;39400;49.744;7.012;2023-05-29T04:46:49;96228.22;;;12.25;89.88
33454;BME280;39400;49.744;7.012;2023-05-29T04:49:15;96230.16;;;12.35;90.00
33454;BME280;39400;49.744;7.012;2023-05-29T04:51:40;96222.31;;;12.30;90.79
33454;BME280;39400;49.744;7.012;2023-05-29T04:54:07;96227.84;;;12.30;90.70
33454;BME280;39400;49.744;7.012;2023-05-29T04:56:34;96231.75;;;12.44;90.53
33454;BME280;39400;49.744;7.012;2023-05-29T04:58:59;96238.78;;;12.52;90.88
33454;BME280;39400;49.744;7.012;2023-05-29T05:01:25;96244.28;;;12.63;90.61
33454;BME280;39400;49.744;7.012;2023-05-29T05:03:51;96240.31;;;12.64;90.67
33454;BME280;39400;49.744;7.012;2023-05-29T05:06:16;96247.47;;;12.54;90.92
33454;BME280;39400;49.744;7.012;2023-05-29T05:08:41;96244.28;;;12.59;91.57
33454;BME280;39400;49.744;7.012;2023-05-29T05:11:07;96240.34;;;12.60;91.90
33454;BME280;39400;49.744;7.012;2023-05-29T05:13:32;96235.63;;;12.57;92.24
33454;BME280;39400;49.744;7.012;2023-05-29T05:15:58;96241.94;;;12.61;92.67
33454;BME280;39400;49.744;7.012;2023-05-29T05:18:23;96252.91;;;12.72;92.52
33454;BME280;39400;49.744;7.012;2023-05-29T05:21:02;96256.00;;;12.81;92.99
33454;BME280;39400;49.744;7.012;2023-05-29T05:23:28;96256.47;;;12.72;92.91
33454;BME280;39400;49.744;7.012;2023-05-29T05:25:53;96252.84;;;12.90;93.35
33454;BME280;39400;49.744;7.012;2023-05-29T05:28:19;96263.09;;;12.93;92.78
33454;BME280;39400;49.744;7.012;2023-05-29T05:30:44;96260.81;;;13.47;91.67
33454;BME280;39400;49.744;7.012;2023-05-29T05:33:09;96257.00;;;13.86;89.78
33454;BME280;39400;49.744;7.012;2023-05-29T05:35:36;96253.53;;;14.19;88.04
33454;BME280;39400;49.744;7.012;2023-05-29T05:38:02;96260.81;;;13.99;88.01
33454;BME280;39400;49.744;7.012;2023-05-29T05:40:28;96261.94;;;14.05;88.95
33454;BME280;39400;49.744;7.012;2023-05-29T05:42:59;96260.34;;;14.08;88.94
33454;BME280;39400;49.744;7.012;2023-05-29T05:45:44;96265.38;;;13.71;91.36
33454;BME280;39400;49.744;7.012;2023-05-29T05:48:10;96265.88;;;13.59;92.01
33454;BME280;39400;49.744;7.012;2023-05-29T05:50:36;96261.88;;;13.64;92.19
33454;BME280;39400;49.744;7.012;2023-05-29T05:53:02;96262.34;;;13.55;93.98
33454;BME280;39400;49.744;7.012;2023-05-29T05:55:27;96257.94;;;13.68;92.71
33454;BME280;39400;49.744;7.012;2023-05-29T05:57:53;96260.78;;;14.02;91.11
33454;BME280;39400;49.744;7.012;2023-05-29T06:00:19;96258.63;;;13.79;92.42
33454;BME280;39400;49.744;7.012;2023-05-29T06:02:44;96261.75;;;13.82;93.82
33454;BME280;39400;49.744;7.012;2023-05-29T06:05:15;96259.94;;;14.09;91.34
33454;BME280;39400;49.744;7.012;2023-05-29T06:07:41;96262.06;;;14.36;91.62
33454;BME280;39400;49.744;7.012;2023-05-29T06:10:07;96256.75;;;14.14;92.20
33454;BME280;39400;49.744;7.012;2023-05-29T06:12:33;96261.53;;;14.10;92.49
33454;BME280;39400;49.744;7.012;2023-05-29T06:15:08;96264.69;;;14.09;92.64
33454;BME280;39400;49.744;7.012;2023-05-29T06:17:34;96257.19;;;14.47;91.47
33454;BME280;39400;49.744;7.012;2023-05-29T06:20:02;96254.41;;;14.85;88.44
33454;BME280;39400;49.744;7.012;2023-05-29T06:22:28;96245.53;;;15.01;88.44
33454;BME280;39400;49.744;7.012;2023-05-29T06:24:54;96253.50;;;14.95;88.67
33454;BME280;39400;49.744;7.012;2023-05-29T06:27:19;96246.53;;;14.83;89.61
33454;BME280;39400;49.744;7.012;2023-05-29T06:29:44;96261.13;;;14.53;89.53
33454;BME280;39400;49.744;7.012;2023-05-29T06:32:10;96262.50;;;14.68;91.00
33454;BME280;39400;49.744;7.012;2023-05-29T06:34:35;96252.50;;;15.12;88.07
33454;BME280;39400;49.744;7.012;2023-05-29T06:37:01;96260.59;;;14.96;89.24
33454;BME280;39400;49.744;7.012;2023-05-29T06:39:26;96255.44;;;15.29;85.57
33454;BME280;39400;49.744;7.012;2023-05-29T06:41:52;96257.00;;;14.99;86.30
33454;BME280;39400;49.744;7.012;2023-05-29T06:44:17;96251.03;;;15.04;86.12
33454;BME280;39400;49.744;7.012;2023-05-29T06:46:43;96241.81;;;15.41;85.09
33454;BME280;39400;49.744;7.012;2023-05-29T06:49:09;96249.75;;;15.39;84.98
33454;BME280;39400;49.744;7.012;2023-05-29T06:51:34;96242.94;;;15.44;83.56
33454;BME280;39400;49.744;7.012;2023-05-29T06:54:20;96262.75;;;15.15;85.10
33454;BME280;39400;49.744;7.012;2023-05-29T06:56:46;96255.44;;;15.29;85.64
33454;BME280;39400;49.744;7.012;2023-05-29T06:59:11;96263.81;;;15.52;84.12
33454;BME280;39400;49.744;7.012;2023-05-29T07:01:36;96259.97;;;15.15;85.19
33454;BME280;39400;49.744;7.012;2023-05-29T07:04:03;96250.78;;;15.22;85.61
33454;BME280;39400;49.744;7.012;2023-05-29T07:06:29;96258.56;;;15.31;86.82
33454;BME280;39400;49.744;7.012;2023-05-29T07:08:55;96255.03;;;15.57;86.84
33454;BME280;39400;49.744;7.012;2023-05-29T07:11:22;96264.66;;;15.49;86.25
33454;BME280;39400;49.744;7.012;2023-05-29T07:13:47;96266.22;;;15.50;86.35
33454;BME280;39400;49.744;7.012;2023-05-29T07:16:13;96266.22;;;15.50;86.19
33454;BME280;39400;49.744;7.012;2023-05-29T07:18:40;96267.75;;;15.82;85.65
33454;BME280;39400;49.744;7.012;2023-05-29T07:21:05;96267.63;;;16.59;80.40
33454;BME280;39400;49.744;7.012;2023-05-29T07:23:31;96270.47;;;16.32;80.45
33454;BME280;39400;49.744;7.012;2023-05-29T07:25:57;96265.59;;;16.40;80.14
33454;BME280;39400;49.744;7.012;2023-05-29T07:28:24;96267.69;;;16.56;78.70
33454;BME280;39400;49.744;7.012;2023-05-29T07:30:51;96264.09;;;16.55;78.80
33454;BME280;39400;49.744;7.012;2023-05-29T07:33:17;96258.97;;;16.77;76.84
33454;BME280;39400;49.744;7.012;2023-05-29T07:35:44;96272.41;;;16.79;77.34
33454;BME280;39400;49.744;7.012;2023-05-29T07:38:09;96273.19;;;16.99;77.38
33454;BME280;39400;49.744;7.012;2023-05-29T07:40:35;96273.91;;;17.03;77.92
33454;BME280;39400;49.744;7.012;2023-05-29T07:43:15;96280.16;;;17.07;78.37
33454;BME280;39400;49.744;7.012;2023-05-29T07:45:52;96278.69;;;17.03;77.14
33454;BME280;39400;49.744;7.012;2023-05-29T07:48:17;96281.31;;;17.10;75.81
33454;BME280;39400;49.744;7.012;2023-05-29T07:50:43;96277.81;;;17.06;77.77
33454;BME280;39400;49.744;7.012;2023-05-29T07:53:08;96284.56;;;17.25;76.87
33454;BME280;39400;49.744;7.012;2023-05-29T07:55:36;96286.84;;;17.30;76.40
33454;BME280;39400;49.744;7.012;2023-05-29T07:58:02;96284.78;;;17.34;76.45
33454;BME280;39400;49.744;7.012;2023-05-29T08:00:28;96276.75;;;17.20;77.31
33454;BME280;39400;49.744;7.012;2023-05-29T08:02:54;96288.63;;;17.20;78.10
33454;BME280;39400;49.744;7.012;2023-05-29T08:05:38;96284.28;;;17.39;76.16
33454;BME280;39400;49.744;7.012;2023-05-29T08:08:08;96288.25;;;17.38;77.28
33454;BME280;39400;49.744;7.012;2023-05-29T08:10:34;96290.16;;;17.61;76.65
33454;BME280;39400;49.744;7.012;2023-05-29T08:13:02;96295.59;;;17.48;75.69
33454;BME280;39400;49.744;7.012;2023-05-29T08:15:29;96298.09;;;17.43;77.76
33454;BME280;39400;49.744;7.012;2023-05-29T08:17:55;96293.53;;;17.89;73.54
33454;BME280;39400;49.744;7.012;2023-05-29T08:20:20;96297.81;;;17.73;74.22
33454;BME280;39400;49.744;7.012;2023-05-29T08:22:46;96299.09;;;17.69;73.07
33454;BME280;39400;49.744;7.012;2023-05-29T08:25:11;96291.97;;;17.88;74.50
33454;BME280;39400;49.744;7.012;2023-05-29T08:27:37;96294.81;;;18.00;73.24
33454;BME280;39400;49.744;7.012;2023-05-29T08:30:03;96297.78;;;17.93;73.51
33454;BME280;39400;49.744;7.012;2023-05-29T08:32:28;96284.91;;;17.99;74.33
33454;BME280;39400;49.744;7.012;2023-05-29T08:34:54;96286.66;;;18.26;73.40
33454;BME280;39400;49.744;7.012;2023-05-29T08:37:19;96286.72;;;18.39;72.53
33454;BME280;39400;49.744;7.012;2023-05-29T08:39:45;96275.69;;;18.19;73.63
33454;BME280;39400;49.744;7.012;2023-05-29T08:42:13;96292.22;;;17.93;75.27
33454;BME280;39400;49.744;7.012;2023-05-29T08:44:47;96286.81;;;18.35;73.53
33454;BME280;39400;49.744;7.012;2023-05-29T08:47:14;96286.63;;;18.42;72.11
33454;BME280;39400;49.744;7.012;2023-05-29T08:49:41;96283.69;;;18.33;72.16
33454;BME280;39400;49.744;7.012;2023-05-29T08:52:17;96281.41;;;18.44;71.16
33454;BME280;39400;49.744;7.012;2023-05-29T08:54:44;96286.69;;;18.71;70.16
33454;BME280;39400;49.744;7.012;2023-05-29T08:57:10;96285.38;;;18.60;70.49
33454;BME280;39400;49.744;7.012;2023-05-29T08:59:37;96290.63;;;18.41;71.88
33454;BME280;39400;49.744;7.012;2023-05-29T09:02:04;96291.31;;;18.78;69.94
33454;BME280;39400;49.744;7.012;2023-05-29T09:04:29;96277.09;;;19.01;68.39
33454;BME280;39400;49.744;7.012;2023-05-29T09:06:55;96287.84;;;18.58;72.26
33454;BME280;39400;49.744;7.012;2023-05-29T09:09:20;96287.44;;;19.30;67.95
33454;BME280;39400;49.744;7.012;2023-05-29T09:11:46;96283.16;;;19.13;68.35
33454;BME280;39400;49.744;7.012;2023-05-29T09:14:32;96289.97;;;19.24;68.25
33454;BME280;39400;49.744;7.012;2023-05-29T09:16:57;96288.25;;;19.43;68.30
33454;BME280;39400;49.744;7.012;2023-05-29T09:19:23;96290.22;;;19.43;68.15
33454;BME280;39400;49.744;7.012;2023-05-29T09:21:50;96300.09;;;19.06;70.99
33454;BME280;39400;49.744;7.012;2023-05-29T09:24:15;96290.19;;;19.72;67.60
33454;BME280;39400;49.744;7.012;2023-05-29T09:26:51;96293.31;;;19.74;67.40
33454;BME280;39400;49.744;7.012;2023-05-29T09:29:16;96293.41;;;19.70;67.43
33454;BME280;39400;49.744;7.012;2023-05-29T09:31:50;96299.47;;;19.69;68.35
33454;BME280;39400;49.744;7.012;2023-05-29T09:34:15;96294.75;;;19.91;67.22
33454;BME280;39400;49.744;7.012;2023-05-29T09:36:41;96294.34;;;19.67;66.23
33454;BME280;39400;49.744;7.012;2023-05-29T09:39:06;96292.63;;;19.70;70.33
33454;BME280;39400;49.744;7.012;2023-05-29T09:41:32;96308.31;;;19.38;70.03
33454;BME280;39400;49.744;7.012;2023-05-29T09:43:59;96310.38;;;19.63;70.49
33454;BME280;39400;49.744;7.012;2023-05-29T09:46:25;96304.34;;;19.78;69.02
33454;BME280;39400;49.744;7.012;2023-05-29T09:48:50;96302.81;;;20.02;70.03
33454;BME280;39400;49.744;7.012;2023-05-29T09:51:20;96296.44;;;20.02;69.27
33454;BME280;39400;49.744;7.012;2023-05-29T09:53:45;96300.13;;;20.11;70.57
33454;BME280;39400;49.744;7.012;2023-05-29T09:56:11;96294.66;;;20.08;65.98
33454;BME280;39400;49.744;7.012;2023-05-29T09:58:38;96292.88;;;19.88;66.06
33454;BME280;39400;49.744;7.012;2023-05-29T10:01:03;96287.16;;;20.05;65.54
33454;BME280;39400;49.744;7.012;2023-05-29T10:03:29;96294.28;;;20.31;66.82
33454;BME280;39400;49.744;7.012;2023-05-29T10:05:55;96295.94;;;20.41;62.54
33454;BME280;39400;49.744;7.012;2023-05-29T10:08:22;96306.34;;;20.28;63.64
33454;BME280;39400;49.744;7.012;2023-05-29T10:11:07;96305.94;;;20.17;66.96
33454;BME280;39400;49.744;7.012;2023-05-29T10:13:38;96297.03;;;20.57;63.63
33454;BME280;39400;49.744;7.012;2023-05-29T10:16:08;96295.59;;;20.39;64.66
33454;BME280;39400;49.744;7.012;2023-05-29T10:18:38;96283.16;;;20.66;63.21
33454;BME280;39400;49.744;7.012;2023-05-29T10:21:03;96281.72;;;20.61;60.62
33454;BME280;39400;49.744;7.012;2023-05-29T10:23:31;96289.47;;;20.45;64.05
33454;BME280;39400;49.744;7.012;2023-05-29T10:26:10;96284.34;;;20.30;69.03
33454;BME280;39400;49.744;7.012;2023-05-29T10:28:39;96288.34;;;20.55;65.89
33454;BME280;39400;49.744;7.012;2023-05-29T10:31:10;96288.34;;;20.55;63.20
33454;BME280;39400;49.744;7.012;2023-05-29T10:33:49;96282.53;;;21.06;61.48
33454;BME280;39400;49.744;7.012;2023-05-29T10:36:18;96283.16;;;20.66;67.13
33454;BME280;39400;49.744;7.012;2023-05-29T10:38:45;96276.44;;;21.20;61.71
33454;BME280;39400;49.744;7.012;2023-05-29T10:44:01;96280.50;;;20.84;64.04
33454;BME280;39400;49.744;7.012;2023-05-29T10:49:15;96290.09;;;21.18;66.43
33454;BME280;39400;49.744;7.012;2023-05-29T10:51:41;96287.22;;;21.09;63.59
33454;BME280;39400;49.744;7.012;2023-05-29T10:54:07;96275.00;;;21.16;64.92
33454;BME280;39400;49.744;7.012;2023-05-29T10:56:32;96280.78;;;21.74;59.25
33454;BME280;39400;49.744;7.012;2023-05-29T10:58:59;96291.84;;;21.78;59.39
33454;BME280;39400;49.744;7.012;2023-05-29T11:01:27;96293.81;;;21.37;65.10
33454;BME280;39400;49.744;7.012;2023-05-29T11:06:40;96289.31;;;21.40;64.84
33454;BME280;39400;49.744;7.012;2023-05-29T11:09:06;96287.50;;;21.46;63.08
33454;BME280;39400;49.744;7.012;2023-05-29T11:11:31;96279.16;;;21.55;64.50
33454;BME280;39400;49.744;7.012;2023-05-29T11:14:00;96285.41;;;21.99;63.74
33454;BME280;39400;49.744;7.012;2023-05-29T11:18:52;96283.41;;;22.09;59.94
33454;BME280;39400;49.744;7.012;2023-05-29T11:21:34;96277.75;;;21.91;61.07
33454;BME280;39400;49.744;7.012;2023-05-29T11:24:04;96283.22;;;22.35;56.85
33454;BME280;39400;49.744;7.012;2023-05-29T11:26:30;96281.53;;;21.97;60.55
33454;BME280;39400;49.744;7.012;2023-05-29T11:29:00;96281.53;;;21.97;60.09
33454;BME280;39400;49.744;7.012;2023-05-29T11:31:27;96272.75;;;21.85;59.98
33454;BME280;39400;49.744;7.012;2023-05-29T11:33:54;96280.03;;;21.74;62.01
33454;BME280;39400;49.744;7.012;2023-05-29T11:36:22;96275.25;;;21.83;62.43
33454;BME280;39400;49.744;7.012;2023-05-29T11:38:48;96282.75;;;21.96;59.18
33454;BME280;39400;49.744;7.012;2023-05-29T11:41:13;96279.66;;;22.03;62.49
33454;BME280;39400;49.744;7.012;2023-05-29T11:43:39;96285.38;;;22.21;61.65
33454;BME280;39400;49.744;7.012;2023-05-29T11:46:18;96291.88;;;22.18;59.92
33454;BME280;39400;49.744;7.012;2023-05-29T11:48:47;96285.00;;;22.10;62.20
33454;BME280;39400;49.744;7.012;2023-05-29T11:51:13;96289.56;;;21.85;60.73
33454;BME280;39400;49.744;7.012;2023-05-29T11:53:41;96275.44;;;21.89;62.82
33454;BME280;39400;49.744;7.012;2023-05-29T11:56:08;96277.66;;;22.03;60.58
33454;BME280;39400;49.744;7.012;2023-05-29T11:58:33;96277.00;;;21.90;62.76
33454;BME280;39400;49.744;7.012;2023-05-29T12:00:59;96265.47;;;22.28;63.71
33454;BME280;39400;49.744;7.012;2023-05-29T12:03:24;96265.34;;;22.41;62.12
33454;BME280;39400;49.744;7.012;2023-05-29T12:05:50;96270.03;;;22.04;59.89
33454;BME280;39400;49.744;7.012;2023-05-29T12:08:15;96272.22;;;22.00;62.10
33454;BME280;39400;49.744;7.012;2023-05-29T12:10:51;96270.22;;;21.69;64.04
33454;BME280;39400;49.744;7.012;2023-05-29T12:13:19;96270.09;;;22.22;63.24
33454;BME280;39400;49.744;7.012;2023-05-29T12:15:45;96263.28;;;22.33;61.37
33454;BME280;39400;49.744;7.012;2023-05-29T12:18:11;96269.84;;;22.57;59.82
33454;BME280;39400;49.744;7.012;2023-05-29T12:20:37;96272.03;;;22.53;61.65
33454;BME280;39400;49.744;7.012;2023-05-29T12:23:02;96279.19;;;22.54;62.80
33454;BME280;39400;49.744;7.012;2023-05-29T12:25:28;96271.41;;;22.49;59.28
33454;BME280;39400;49.744;7.012;2023-05-29T12:27:57;96274.84;;;22.53;62.84
33454;BME280;39400;49.744;7.012;2023-05-29T12:30:23;96275.16;;;22.73;60.18
33454;BME280;39400;49.744;7.012;2023-05-29T12:32:50;96267.06;;;22.57;58.83
33454;BME280;39400;49.744;7.012;2023-05-29T12:35:17;96258.34;;;22.55;57.91
33454;BME280;39400;49.744;7.012;2023-05-29T12:38:05;96252.75;;;22.55;58.18
33454;BME280;39400;49.744;7.012;2023-05-29T12:40:31;96251.78;;;22.58;56.84
33454;BME280;39400;49.744;7.012;2023-05-29T12:43:01;96257.88;;;22.84;55.92
33454;BME280;39400;49.744;7.012;2023-05-29T12:45:29;96273.75;;;22.60;60.63
33454;BME280;39400;49.744;7.012;2023-05-29T12:47:56;96269.56;;;22.92;59.32
33454;BME280;39400;49.744;7.012;2023-05-29T12:50:24;96276.09;;;22.89;60.77
33454;BME280;39400;49.744;7.012;2023-05-29T12:53:14;96277.69;;;22.90;56.35
33454;BME280;39400;49.744;7.012;2023-05-29T12:55:39;96263.34;;;23.15;54.63
33454;BME280;39400;49.744;7.012;2023-05-29T12:58:09;96270.03;;;23.18;55.75
33454;BME280;39400;49.744;7.012;2023-05-29T13:00:37;96271.75;;;23.15;58.66
33454;BME280;39400;49.744;7.012;2023-05-29T13:03:02;96278.13;;;23.16;57.92
33454;BME280;39400;49.744;7.012;2023-05-29T13:05:28;96283.91;;;23.12;57.24
33454;BME280;39400;49.744;7.012;2023-05-29T13:07:54;96274.88;;;23.17;58.49
33454;BME280;39400;49.744;7.012;2023-05-29T13:10:20;96275.72;;;23.51;57.60
33454;BME280;39400;49.744;7.012;2023-05-29T13:12:46;96279.78;;;23.68;57.02
33454;BME280;39400;49.744;7.012;2023-05-29T13:15:13;96278.97;;;23.77;58.20